• Join FlightAware (Why Join?)
  • Login
  • US Flag 
11:11AM EST


 

Airport Tracker/Info


-or-


 

Live Flight TrackerFlight Track Log ✈ JTA76 ✈ 11-Jul-2013 ✈ ROIG / ISG - RJTT / HND

Flight Track Log - Related Links

Times and Time Zones

All times are in EDT time to prevent confusion due to time zone crossing. See the JTA76 flight status page for this flight to view local times or setup timezone preferences in your user account.

Time Position Orientation Groundspeed Altitude Reporting Facility
EDT Latitude Longitude Course Direction KTS MPH feet Rate Location/Type
06:22AM 24.5816 124.4631 47° Northeast  Level Estimated
06:23AM 24.6606 124.5554 47° Northeast  Level Estimated
06:24AM 24.7395 124.6478 47° Northeast  Level Estimated
06:25AM 24.8183 124.7403 47° Northeast  Level Estimated
06:26AM 24.8970 124.8330 47° Northeast  Level Estimated
06:27AM 24.9757 124.9257 47° Northeast  Level Estimated
06:28AM 25.0544 125.0186 47° Northeast  Level Estimated
06:29AM 25.1330 125.1116 47° Northeast  Level Estimated
06:30AM 25.2115 125.2047 47° Northeast  Level Estimated
06:31AM 25.2900 125.2979 47° Northeast  Level Estimated
06:32AM 25.3684 125.3913 47° Northeast  Level Estimated
06:33AM 25.4478 125.4860 47° Northeast  Level Estimated
06:34AM 25.5271 125.5808 47° Northeast  Level Estimated
06:35AM 25.6064 125.6758 47° Northeast  Level Estimated
06:36AM 25.6856 125.7709 47° Northeast  Level Estimated
06:37AM 25.7647 125.8661 47° Northeast  Level Estimated
06:38AM 25.8438 125.9615 47° Northeast  Level Estimated
06:39AM 25.9228 126.0570 47° Northeast  Level Estimated
06:40AM 26.0018 126.1526 47° Northeast  Level Estimated
06:41AM 26.0807 126.2483 47° Northeast  Level Estimated
06:42AM 26.1595 126.3442 47° Northeast  Level Estimated
06:43AM 26.2383 126.4402 48° Northeast  Level Estimated
06:44AM 26.3170 126.5363 48° Northeast  Level Estimated
06:45AM 26.3957 126.6325 48° Northeast  Level Estimated
06:46AM 26.4743 126.7289 48° Northeast  Level Estimated
06:47AM 26.5528 126.8254 48° Northeast  Level Estimated
06:48AM 26.6307 126.9214 48° Northeast  Level Estimated
06:49AM 26.7086 127.0176 48° Northeast  Level Estimated
06:50AM 26.7864 127.1139 48° Northeast  Level Estimated
06:51AM 26.8641 127.2103 48° Northeast  Level Estimated
06:52AM 26.9418 127.3068 48° Northeast  Level Estimated
06:53AM 27.0194 127.4035 48° Northeast  Level Estimated
06:54AM 27.0969 127.5003 48° Northeast  Level Estimated
06:55AM 27.1744 127.5972 48° Northeast  Level Estimated
06:56AM 27.2518 127.6943 48° Northeast  Level Estimated
06:57AM 27.3292 127.7915 48° Northeast  Level Estimated
06:58AM 27.4064 127.8888 48° Northeast  Level Estimated
06:59AM 27.4836 127.9863 48° Northeast  Level Estimated
07:00AM 27.5608 128.0839 48° Northeast  Level Estimated
07:01AM 27.6378 128.1817 48° Northeast  Level Estimated
07:02AM 27.7148 128.2796 48° Northeast  Level Estimated
07:03AM 27.7918 128.3776 48° Northeast  Level Estimated
07:04AM 27.8686 128.4758 48° Northeast  Level Estimated
07:05AM 27.9454 128.5741 49° Northeast  Level Estimated
07:06AM 28.0221 128.6725 49° Northeast  Level Estimated
07:07AM 28.0988 128.7711 49° Northeast  Level Estimated
07:08AM 28.1754 128.8698 49° Northeast  Level Estimated
07:09AM 28.2519 128.9687 49° Northeast  Level Estimated
07:10AM 28.3283 129.0677 49° Northeast  Level Estimated
07:11AM 28.4047 129.1669 49° Northeast  Level Estimated
07:12AM 28.4810 129.2662 49° Northeast  Level Estimated
07:13AM 28.5572 129.3656 49° Northeast  Level Estimated
07:14AM 28.6334 129.4652 49° Northeast  Level Estimated
07:15AM 28.7094 129.5649 49° Northeast  Level Estimated
07:16AM 28.7854 129.6648 49° Northeast  Level Estimated
07:17AM 28.8614 129.7648 49° Northeast  Level Estimated
07:18AM 28.9372 129.8650 49° Northeast  Level Estimated
07:19AM 29.0130 129.9653 49° Northeast  Level Estimated
07:20AM 29.0887 130.0657 49° Northeast  Level Estimated
07:21AM 29.1644 130.1664 49° Northeast  Level Estimated
07:22AM 29.2399 130.2671 49° Northeast  Level Estimated
07:23AM 29.3154 130.3680 49° Northeast  Level Estimated
07:24AM 29.3908 130.4691 49° Northeast  Level Estimated
07:25AM 29.4661 130.5703 49° Northeast  Level Estimated
07:26AM 29.5414 130.6716 50° Northeast  Level Estimated
07:27AM 29.6166 130.7731 50° Northeast  Level Estimated
07:28AM 29.6917 130.8748 50° Northeast  Level Estimated
07:29AM 29.7667 130.9766 50° Northeast  Level Estimated
07:30AM 29.8416 131.0785 50° Northeast  Level Estimated
07:31AM 29.9165 131.1806 50° Northeast  Level Estimated
07:32AM 29.9913 131.2829 50° Northeast  Level Estimated
07:33AM 30.0660 131.3853 50° Northeast  Level Estimated
07:34AM 30.1406 131.4879 50° Northeast  Level Estimated
07:35AM 30.2152 131.5906 50° Northeast  Level Estimated
07:36AM 30.2896 131.6935 50° Northeast  Level Estimated
07:37AM 30.3645 131.7973 50° Northeast  Level Estimated
07:38AM 30.4393 131.9012 50° Northeast  Level Estimated
07:39AM 30.5140 132.0052 50° Northeast  Level Estimated
07:40AM 30.5887 132.1094 50° Northeast  Level Estimated
07:41AM 30.6632 132.2138 50° Northeast  Level Estimated
07:42AM 30.7377 132.3183 50° Northeast  Level Estimated
07:43AM 30.8121 132.4230 50° Northeast  Level Estimated
07:44AM 30.8864 132.5278 50° Northeast  Level Estimated
07:45AM 30.9606 132.6329 50° Northeast  Level Estimated
07:46AM 31.0347 132.7381 51° Northeast  Level Estimated
07:47AM 31.1088 132.8434 51° Northeast  Level Estimated
07:48AM 31.1827 132.9489 51° Northeast  Level Estimated
07:49AM 31.2566 133.0546 51° Northeast  Level Estimated
07:50AM 31.3304 133.1604 51° Northeast  Level Estimated
07:51AM 31.4041 133.2664 51° Northeast  Level Estimated
07:52AM 31.4777 133.3726 51° Northeast  Level Estimated
07:53AM 31.5512 133.4789 51° Northeast  Level Estimated
07:54AM 31.6247 133.5854 51° Northeast  Level Estimated
07:55AM 31.6980 133.6921 51° Northeast  Level Estimated
07:56AM 31.7713 133.7989 51° Northeast  Level Estimated
07:57AM 31.8444 133.9059 51° Northeast  Level Estimated
07:58AM 31.9175 134.0131 51° Northeast  Level Estimated
07:59AM 31.9905 134.1205 51° Northeast  Level Estimated
08:00AM 32.0634 134.2280 51° Northeast  Level Estimated
08:01AM 32.1362 134.3357 51° Northeast  Level Estimated
08:02AM 32.2089 134.4436 51° Northeast  Level Estimated
08:03AM 32.2816 134.5516 51° Northeast  Level Estimated
08:04AM 32.3546 134.6605 52° Northeast  Level Estimated
08:05AM 32.4275 134.7697 52° Northeast  Level Estimated
08:06AM 32.5004 134.8789 52° Northeast  Level Estimated
08:07AM 32.5731 134.9884 52° Northeast  Level Estimated
08:08AM 32.6457 135.0981 52° Northeast  Level Estimated
08:09AM 32.7183 135.2079 52° Northeast  Level Estimated
08:10AM 32.7907 135.3179 52° Northeast  Level Estimated
08:11AM 32.8631 135.4281 52° Northeast  Level Estimated
08:12AM 32.9353 135.5384 52° Northeast  Level Estimated
08:13AM 33.0075 135.6490 52° Northeast  Level Estimated
08:14AM 33.0796 135.7597 52° Northeast  Level Estimated
08:15AM 33.1515 135.8706 52° Northeast  Level Estimated
08:16AM 33.2234 135.9817 52° Northeast  Level Estimated
08:17AM 33.2952 136.0929 52° Northeast  Level Estimated
08:18AM 33.3668 136.2044 52° Northeast  Level Estimated
08:19AM 33.4384 136.3160 52° Northeast  Level Estimated
08:20AM 33.5099 136.4279 53° Northeast  Level Estimated
08:21AM 33.5812 136.5399 53° Northeast  Level Estimated
08:22AM 33.6525 136.6520 53° Northeast  Level Estimated
08:23AM 33.7237 136.7644 53° Northeast  Level Estimated
08:24AM 33.7947 136.8770 53° Northeast  Level Estimated
08:25AM 33.8657 136.9897 53° Northeast  Level Estimated
08:26AM 33.9366 137.1027 53° Northeast  Level Estimated
08:27AM 34.0073 137.2158 53° Northeast  Level Estimated
08:28AM 34.0779 137.3291 53° Northeast  Level Estimated
08:29AM 34.1485 137.4426 53° Northeast  Level Estimated
08:30AM 34.2189 137.5563 53° Northeast  Level Estimated
08:31AM 34.2893 137.6702 53° Northeast  Level Estimated
08:32AM 34.3595 137.7842 53° Northeast  Level Estimated
08:33AM 34.4296 137.8985 53° Northeast  Level Estimated
08:34AM 34.4996 138.0130 53° Northeast  Level Estimated
08:35AM 34.5696 138.1276 53° Northeast  Level Estimated
08:36AM 34.6394 138.2424 54° Northeast  Level Estimated
08:37AM 34.7091 138.3575 54° Northeast  Level Estimated
08:38AM 34.7786 138.4727 54° Northeast  Level Estimated
08:39AM 34.8481 138.5881 54° Northeast  Level Estimated
08:40AM 34.9175 138.7038 54° Northeast  Level Estimated
08:41AM 34.9868 138.8196 54° Northeast  Level Estimated
08:42AM 35.0559 138.9356 54° Northeast  Level Estimated
08:43AM 35.1250 139.0518 54° Northeast  Level Estimated
08:44AM 35.1939 139.1682 54° Northeast  Level Estimated
08:45AM 35.2627 139.2848 54° Northeast  Level Estimated
08:46AM 35.3314 139.4016 54° Northeast  Level Estimated
08:47AM 35.4000 139.5186 54° Northeast  Level Estimated
08:48AM 35.4685 139.6358 54° Northeast  Level Estimated
08:49AM 35.5368 139.7532 54° Northeast  Level Estimated
08:50AM 35.5523 139.7797 54° Northeast  Level Estimated
08:51AM 35.5523 139.7797 122° Southeast  Level Estimated
08:52AM 35.5523 139.7797 122° Southeast  Level Estimated
08:53AM 35.5523 139.7797 122° Southeast  Level Estimated
08:54AM 35.5523 139.7797 122° Southeast  Level Estimated
08:55AM 35.5523 139.7797 122° Southeast  Level Estimated
08:56AM 35.5523 139.7797 122° Southeast  Level Estimated
08:57AM 35.5523 139.7797 122° Southeast  Level Estimated
08:58AM 35.5523 139.7797 122° Southeast  Level Estimated
08:59AM 35.5523 139.7797 122° Southeast  Level Estimated
09:00AM 35.5523 139.7797 122° Southeast  Level Estimated
09:01AM 35.5523 139.7797 122° Southeast  Level Estimated
09:02AM 35.5523 139.7797 122° Southeast  Level Estimated
09:03AM 35.5523 139.7797 122° Southeast  Level Estimated